createdAt,value
2019-02-27T00:00:44.488Z,3.78
2019-02-27T00:05:53.356Z,3.36
2019-02-27T00:11:02.393Z,3.44
2019-02-27T00:16:11.657Z,3.40
2019-02-27T00:21:20.583Z,3.01
2019-02-27T00:26:30.306Z,3.34
2019-02-27T00:31:39.360Z,3.49
2019-02-27T00:36:48.472Z,3.33
2019-02-27T00:41:57.529Z,3.18
2019-02-27T00:47:06.758Z,3.23
2019-02-27T00:52:18.059Z,3.42
2019-02-27T00:57:24.465Z,3.09
2019-02-27T01:02:33.741Z,3.16
2019-02-27T01:07:43.058Z,2.97
2019-02-27T01:12:52.261Z,3.11
2019-02-27T01:18:01.445Z,3.05
2019-02-27T01:23:11.154Z,3.10
2019-02-27T01:28:19.102Z,3.14
2019-02-27T01:33:28.118Z,2.96
2019-02-27T01:38:38.017Z,3.02
2019-02-27T01:43:45.817Z,2.99
2019-02-27T01:48:55.012Z,3.28
2019-02-27T01:54:04.038Z,2.84
2019-02-27T01:59:14.027Z,3.90
2019-02-27T02:04:22.132Z,3.76
2019-02-27T02:09:31.199Z,3.77
2019-02-27T02:14:40.289Z,3.15
2019-02-27T02:19:49.458Z,2.88
2019-02-27T02:24:58.500Z,3.30
2019-02-27T02:30:08.104Z,3.32
2019-02-27T02:35:17.139Z,3.51
2019-02-27T02:40:30.832Z,3.37
2019-02-27T02:45:34.863Z,3.59
2019-02-27T02:50:44.046Z,3.20
2019-02-27T02:55:53.081Z,3.66
2019-02-27T03:01:02.247Z,3.32
2019-02-27T03:06:11.257Z,3.25
2019-02-27T03:11:20.338Z,3.38
2019-02-27T03:16:29.348Z,3.16
2019-02-27T03:21:38.438Z,3.36
2019-02-27T03:26:51.865Z,2.94
2019-02-27T03:31:59.848Z,3.09
2019-02-27T03:37:04.686Z,3.20
2019-02-27T03:42:13.928Z,3.29
2019-02-27T03:47:22.960Z,3.40
2019-02-27T03:52:36.088Z,3.57
2019-02-27T03:57:40.640Z,2.92
2019-02-27T04:02:49.769Z,3.13
2019-02-27T04:07:58.834Z,3.31
2019-02-27T04:13:08.004Z,3.16
2019-02-27T04:18:17.044Z,2.79
2019-02-27T04:23:26.174Z,2.49
2019-02-27T04:28:35.187Z,2.86
2019-02-27T04:33:44.442Z,2.97
2019-02-27T04:38:53.541Z,2.61
2019-02-27T04:44:05.326Z,2.54
2019-02-27T04:49:11.597Z,2.64
2019-02-27T04:54:20.852Z,2.53
2019-02-27T04:59:29.865Z,2.50
2019-02-27T05:04:39.196Z,2.61
2019-02-27T05:09:48.284Z,2.43
2019-02-27T05:14:57.405Z,2.25
2019-02-27T05:20:09.163Z,2.21
2019-02-27T05:25:15.689Z,2.63
2019-02-27T05:30:24.702Z,2.55
2019-02-27T05:35:33.796Z,2.57
2019-02-27T05:40:42.849Z,2.36
2019-02-27T05:45:51.962Z,2.39
2019-02-27T05:51:01.109Z,2.45
2019-02-27T05:56:10.502Z,2.44
2019-02-27T06:01:19.567Z,2.43
2019-02-27T06:06:28.709Z,2.22
2019-02-27T06:11:37.752Z,2.40
2019-02-27T06:16:46.925Z,2.35
2019-02-27T06:21:56.266Z,2.56
2019-02-27T06:27:06.412Z,2.65
2019-02-27T06:32:13.159Z,2.76
2019-02-27T06:37:22.229Z,2.71
2019-02-27T06:42:31.340Z,2.47
2019-02-27T06:47:40.577Z,2.34
2019-02-27T06:52:49.634Z,2.54
2019-02-27T06:57:58.937Z,2.42
2019-02-27T07:03:08.002Z,2.56
2019-02-27T07:08:17.366Z,2.74
2019-02-27T07:13:29.306Z,2.81
2019-02-27T07:18:36.502Z,2.65
2019-02-27T07:23:44.038Z,2.56
2019-02-27T07:28:53.201Z,2.56
2019-02-27T07:34:02.258Z,2.57
2019-02-27T07:39:11.381Z,2.36
2019-02-27T07:44:20.533Z,2.27
2019-02-27T07:49:30.962Z,2.31
2019-02-27T07:54:38.362Z,2.28
2019-02-27T07:59:47.680Z,2.49
2019-02-27T08:04:56.749Z,2.50
2019-02-27T08:10:05.845Z,2.38
2019-02-27T08:15:14.893Z,2.33
2019-02-27T08:20:24.061Z,2.39
2019-02-27T08:25:33.141Z,2.30
2019-02-27T08:30:42.273Z,2.87
2019-02-27T08:35:51.316Z,2.71
2019-02-27T08:41:00.490Z,2.65
2019-02-27T08:46:09.554Z,2.83
2019-02-27T08:51:18.931Z,2.45
2019-02-27T08:56:29.981Z,2.44
2019-02-27T09:01:37.821Z,2.08
2019-02-27T09:06:45.444Z,2.11
2019-02-27T09:11:54.733Z,2.32
2019-02-27T09:17:03.785Z,2.48
2019-02-27T09:22:12.894Z,6.09
2019-02-27T09:27:23.965Z,4.07
2019-02-27T09:32:23.018Z,6.72
2019-02-27T09:37:32.065Z,6.01
2019-02-27T09:42:41.180Z,5.33
2019-02-27T09:47:50.254Z,6.26
2019-02-27T09:53:01.076Z,6.30
2019-02-27T09:58:11.142Z,5.68
2019-02-27T10:03:20.510Z,6.41
2019-02-27T10:08:26.378Z,6.55
2019-02-27T10:13:37.872Z,5.89
2019-02-27T10:18:44.123Z,6.36
2019-02-27T10:23:53.257Z,6.35
2019-02-27T10:29:02.272Z,6.96
2019-02-27T10:34:11.386Z,9.46
2019-02-27T10:39:20.441Z,8.52
2019-02-27T10:44:33.570Z,8.43
2019-02-27T10:49:38.337Z,9.18
2019-02-27T10:56:11.515Z,11.42
2019-02-27T11:01:10.505Z,9.62
2019-02-27T11:06:20.217Z,8.38
2019-02-27T11:11:29.270Z,9.62
2019-02-27T11:16:38.566Z,9.95
2019-02-27T11:21:47.706Z,10.14
2019-02-27T11:26:57.019Z,11.80
2019-02-27T11:32:05.881Z,12.50
2019-02-27T11:37:16.466Z,12.41
2019-02-27T11:42:24.061Z,13.64
2019-02-27T11:47:33.179Z,12.46
2019-02-27T11:52:48.539Z,12.90
2019-02-27T11:57:50.892Z,13.72
2019-02-27T12:02:59.932Z,13.87
2019-02-27T12:08:09.077Z,15.16
2019-02-27T12:13:18.285Z,16.87
2019-02-27T12:18:27.431Z,16.41
2019-02-27T12:23:36.458Z,15.93
2019-02-27T12:28:47.642Z,15.39
2019-02-27T12:33:46.590Z,17.00
2019-02-27T12:38:55.722Z,17.09
2019-02-27T12:44:04.793Z,16.56
2019-02-27T12:49:14.049Z,15.57
2019-02-27T12:54:23.116Z,16.84
2019-02-27T12:59:33.024Z,16.31
2019-02-27T13:04:40.929Z,16.71
2019-02-27T13:09:50.007Z,16.23
2019-02-27T13:14:59.547Z,17.32
2019-02-27T13:20:09.139Z,16.54
2019-02-27T13:25:16.898Z,18.25
2019-02-27T13:30:26.122Z,19.95
2019-02-27T13:35:35.150Z,19.47
2019-02-27T13:40:44.272Z,19.65
2019-02-27T13:45:53.320Z,19.29
2019-02-27T13:51:02.715Z,19.63
2019-02-27T13:56:11.857Z,17.97
2019-02-27T14:01:20.957Z,16.99
2019-02-27T14:06:29.950Z,18.43
2019-02-27T14:11:39.002Z,21.09
2019-02-27T14:16:49.295Z,19.72
2019-02-27T14:21:56.701Z,20.75
2019-02-27T14:27:05.806Z,19.85
2019-02-27T14:32:15.153Z,18.08
2019-02-27T14:37:24.178Z,19.18
2019-02-27T14:42:33.301Z,20.94
2019-02-27T14:47:42.318Z,20.74
2019-02-27T14:52:51.389Z,20.36
2019-02-27T14:58:02.556Z,21.21
2019-02-27T15:03:01.637Z,21.16
2019-02-27T15:08:10.675Z,20.73
2019-02-27T15:13:19.966Z,21.53
2019-02-27T15:18:29.007Z,19.92
2019-02-27T15:23:38.212Z,19.60
2019-02-27T15:28:47.230Z,18.73
2019-02-27T15:33:56.546Z,18.37
2019-02-27T15:39:05.663Z,18.99
2019-02-27T15:44:14.766Z,18.89
2019-02-27T15:49:23.945Z,18.40
2019-02-27T15:54:33.073Z,17.53
2019-02-27T15:59:42.631Z,16.79
2019-02-27T16:04:52.243Z,17.11
2019-02-27T16:10:05.799Z,15.23
2019-02-27T16:15:09.080Z,16.87
2019-02-27T16:20:18.149Z,16.03
2019-02-27T16:25:27.230Z,15.56
2019-02-27T16:30:37.164Z,17.93
2019-02-27T16:35:46.421Z,15.07
2019-02-27T16:40:53.651Z,15.96
2019-02-27T16:46:07.664Z,16.79
2019-02-27T16:51:11.203Z,17.10
2019-02-27T16:56:20.499Z,17.72
2019-02-27T17:01:30.150Z,17.39
2019-02-27T17:06:38.385Z,16.54
2019-02-27T17:11:47.425Z,16.26
2019-02-27T17:16:56.570Z,16.30
2019-02-27T17:22:05.988Z,16.83
2019-02-27T17:27:16.509Z,16.02
2019-02-27T17:32:24.041Z,15.31
2019-02-27T17:37:33.359Z,17.71
2019-02-27T17:42:42.426Z,17.22
2019-02-27T17:47:51.575Z,18.25
2019-02-27T17:53:00.609Z,18.23
2019-02-27T17:58:09.776Z,17.03
2019-02-27T18:03:18.869Z,17.17
2019-02-27T18:08:28.272Z,16.22
2019-02-27T18:13:37.278Z,16.78
2019-02-27T18:18:46.406Z,16.15
2019-02-27T18:23:58.768Z,16.42
2019-02-27T18:29:04.326Z,16.20
2019-02-27T18:34:12.711Z,15.69
2019-02-27T18:39:21.849Z,16.29
2019-02-27T18:44:30.910Z,16.75
2019-02-27T18:49:40.239Z,17.71
2019-02-27T18:54:49.294Z,15.62
2019-02-27T19:00:01.311Z,15.70
2019-02-27T19:05:07.426Z,14.80
2019-02-27T19:10:15.639Z,16.64
2019-02-27T19:15:25.173Z,15.21
2019-02-27T19:20:34.319Z,17.68
2019-02-27T19:25:43.352Z,16.84
2019-02-27T19:30:52.542Z,15.59
2019-02-27T19:36:02.766Z,17.11
2019-02-27T19:41:10.485Z,16.59
2019-02-27T19:46:19.482Z,17.64
2019-02-27T19:51:28.654Z,18.02
2019-02-27T19:56:38.772Z,17.26
2019-02-27T20:01:42.813Z,17.13
2019-02-27T20:06:46.423Z,20.25
2019-02-27T20:11:55.606Z,19.47
2019-02-27T20:17:04.817Z,18.61
2019-02-27T20:22:15.424Z,16.88
2019-02-27T20:27:25.892Z,15.57
2019-02-27T20:32:31.744Z,15.15
2019-02-27T20:37:41.374Z,12.45
2019-02-27T20:42:50.380Z,14.31
2019-02-27T20:48:01.711Z,14.62
2019-02-27T20:53:06.787Z,14.12
2019-02-27T20:58:16.842Z,12.19
2019-02-27T21:03:27.202Z,12.30
2019-02-27T21:08:33.287Z,10.99
2019-02-27T21:13:41.956Z,11.63
2019-02-27T21:18:52.350Z,11.42
2019-02-27T21:23:59.800Z,10.35
2019-02-27T21:29:09.849Z,10.61
2019-02-27T21:34:20.035Z,9.50
2019-02-27T21:39:28.211Z,9.22
2019-02-27T21:44:34.757Z,10.08
2019-02-27T21:49:43.777Z,9.36
2019-02-27T21:54:53.009Z,10.57
2019-02-27T22:00:02.099Z,9.92
2019-02-27T22:05:11.427Z,10.94
2019-02-27T22:10:20.632Z,10.29
2019-02-27T22:15:29.771Z,10.00
2019-02-27T22:20:38.842Z,9.65
2019-02-27T22:25:49.213Z,9.10
2019-02-27T22:30:48.196Z,9.44
2019-02-27T22:35:57.423Z,9.99
2019-02-27T22:41:09.467Z,9.04
2019-02-27T22:46:16.428Z,9.09
2019-02-27T22:51:23.614Z,9.02
2019-02-27T22:56:33.726Z,8.86
2019-02-27T23:01:32.712Z,8.88
2019-02-27T23:06:43.721Z,9.01
2019-02-27T23:11:50.491Z,9.56
2019-02-27T23:17:00.579Z,9.39
2019-02-27T23:22:08.203Z,8.73
2019-02-27T23:27:17.548Z,9.66
2019-02-27T23:32:28.652Z,10.37
2019-02-27T23:37:35.321Z,8.89
2019-02-27T23:42:44.346Z,8.07
2019-02-27T23:47:53.537Z,9.39
2019-02-27T23:53:02.589Z,8.52
2019-02-27T23:58:11.713Z,8.29
